22.8°F
Current conditions from King Hill
Updated every 5 minutes
 
  Friday November 28, 2014

Station Historical Data
Daily Summary for January 22, 2012 Units:  Both    English   Metric
« Previous Day
Next Day »
Daily Weekly Monthly Yearly Custom
  High: Low: Average:
Temperature: 26.2 °F /  -3.2 °C -0.8 °F /  -18.2 °C 13.3 °F /  -10.4 °C
Dew Point: 17.8 °F /  -7.9 °C -5.9 °F /  -21.1 °C 3.8 °F /  -15.7 °C
Humidity: 82% 47% 67%
Wind Speed: 13.0mph /  20.9km/h - 4.7mph /  7.6km/h
Wind Gust: 29.0mph /  46.7km/h - -
Wind- - SSW
Pressure: 30.54 in /  1034.1 hPa 30.32 in /  1026.6 hPa -
Precipitation: 0.00 in /  0 mm    
Historical Graphs
 
 
Tabular Data for January 22, 2012
Time Temperature Dew Point Pressure Wind Wind Speed Wind Gust Humidity Daily Rainfall
00:00 0.8 °F /  -17.3 °C -3.9 °F /  -19.9 °C 30.38in /  1028.7hPa Calm     80% 0.00in /  0mm
00:05 1.1 °F /  -17.2 °C -3.4 °F /  -19.7 °C 30.39in /  1029hPa Calm     81% 0.00in /  0mm
00:10 1.9 °F /  -16.7 °C -2.6 °F /  -19.2 °C 30.39in /  1029hPa Calm     81% 0.00in /  0mm
00:20 2.3 °F /  -16.5 °C -2.2 °F /  -19 °C 30.39in /  1029hPa Calm     81% 0.00in /  0mm
00:25 2.2 °F /  -16.6 °C -2.3 °F /  -19.1 °C 30.40in /  1029.3hPa Calm     81% 0.00in /  0mm
00:30 2.1 °F /  -16.6 °C -2.4 °F /  -19.1 °C 30.40in /  1029.3hPa Calm     81% 0.00in /  0mm
00:35 1.6 °F /  -16.9 °C -3.1 °F /  -19.5 °C 30.40in /  1029.3hPa Calm     80% 0.00in /  0mm
00:40 1.9 °F /  -16.7 °C -2.6 °F /  -19.2 °C 30.40in /  1029.3hPa Calm     81% 0.00in /  0mm
00:50 2.7 °F /  -16.3 °C -1.8 °F /  -18.8 °C 30.40in /  1029.3hPa Calm     81% 0.00in /  0mm
00:55 3.0 °F /  -16.1 °C -1.5 °F /  -18.6 °C 30.41in /  1029.7hPa Calm     81% 0.00in /  0mm
01:00 3.2 °F /  -16 °C -1.3 °F /  -18.5 °C 30.41in /  1029.7hPa Calm     81% 0.00in /  0mm
01:05 3.1 °F /  -16.1 °C -1.4 °F /  -18.6 °C 30.41in /  1029.7hPa Calm     81% 0.00in /  0mm
01:10 2.6 °F /  -16.3 °C -2.2 °F /  -19 °C 30.41in /  1029.7hPa Calm     80% 0.00in /  0mm
01:15 2.6 °F /  -16.3 °C -2.2 °F /  -19 °C 30.41in /  1029.7hPa Calm     80% 0.00in /  0mm
01:20 2.9 °F /  -16.2 °C -1.6 °F /  -18.7 °C 30.42in /  1030hPa Calm     81% 0.00in /  0mm
01:25 2.8 °F /  -16.2 °C -1.7 °F /  -18.7 °C 30.42in /  1030hPa Calm     81% 0.00in /  0mm
01:30 2.3 °F /  -16.5 °C -2.5 °F /  -19.2 °C 30.42in /  1030hPa Calm     80% 0.00in /  0mm
01:35 1.7 °F /  -16.8 °C -3.3 °F /  -19.6 °C 30.42in /  1030hPa Calm     79% 0.00in /  0mm
01:40 1.7 °F /  -16.8 °C -3.0 °F /  -19.4 °C 30.42in /  1030hPa Calm     80% 0.00in /  0mm
01:45 1.6 °F /  -16.9 °C -3.1 °F /  -19.5 °C 30.42in /  1030hPa Calm     80% 0.00in /  0mm
01:50 1.5 °F /  -16.9 °C -3.2 °F /  -19.6 °C 30.43in /  1030.4hPa Calm     80% 0.00in /  0mm
02:00 1.6 °F /  -16.9 °C -3.1 °F /  -19.5 °C 30.43in /  1030.4hPa Calm     80% 0.00in /  0mm
02:05 1.7 °F /  -16.8 °C -3.0 °F /  -19.4 °C 30.43in /  1030.4hPa Calm     80% 0.00in /  0mm
02:10 1.7 °F /  -16.8 °C -3.0 °F /  -19.4 °C 30.43in /  1030.4hPa Calm     80% 0.00in /  0mm
02:15 1.5 °F /  -16.9 °C -3.2 °F /  -19.6 °C 30.43in /  1030.4hPa Calm     80% 0.00in /  0mm
02:20 0.9 °F /  -17.3 °C -4.1 °F /  -20.1 °C 30.43in /  1030.4hPa Calm     79% 0.00in /  0mm
02:25 0.2 °F /  -17.7 °C -5.0 °F /  -20.6 °C 30.44in /  1030.7hPa Calm     78% 0.00in /  0mm
02:30 -0.4 °F /  -18 °C -5.6 °F /  -20.9 °C 30.44in /  1030.7hPa Calm     78% 0.00in /  0mm
02:35 -0.6 °F /  -18.1 °C -5.8 °F /  -21 °C 30.44in /  1030.7hPa Calm     78% 0.00in /  0mm
02:40 -0.6 °F /  -18.1 °C -5.5 °F /  -20.8 °C 30.44in /  1030.7hPa Calm     79% 0.00in /  0mm
02:45 -0.6 °F /  -18.1 °C -5.5 °F /  -20.8 °C 30.44in /  1030.7hPa Calm     79% 0.00in /  0mm
02:50 -0.5 °F /  -18.1 °C -5.5 °F /  -20.8 °C 30.44in /  1030.7hPa Calm     79% 0.00in /  0mm
02:55 -0.3 °F /  -17.9 °C -5.0 °F /  -20.6 °C 30.43in /  1030.4hPa Calm     80% 0.00in /  0mm
03:00 -0.3 °F /  -17.9 °C -5.0 °F /  -20.6 °C 30.44in /  1030.7hPa Calm     80% 0.00in /  0mm
03:05 -0.5 °F /  -18.1 °C -5.5 °F /  -20.8 °C 30.44in /  1030.7hPa Calm     79% 0.00in /  0mm
03:10 -0.7 °F /  -18.2 °C -5.6 °F /  -20.9 °C 30.44in /  1030.7hPa Calm     79% 0.00in /  0mm
03:15 -0.7 °F /  -18.2 °C -5.6 °F /  -20.9 °C 30.44in /  1030.7hPa Calm     79% 0.00in /  0mm
03:20 -0.7 °F /  -18.2 °C -5.6 °F /  -20.9 °C 30.44in /  1030.7hPa Calm     79% 0.00in /  0mm
03:25 -0.5 °F /  -18.1 °C -5.2 °F /  -20.7 °C 30.44in /  1030.7hPa Calm     80% 0.00in /  0mm
03:30 -0.5 °F /  -18.1 °C -5.2 °F /  -20.7 °C 30.44in /  1030.7hPa Calm     80% 0.00in /  0mm
03:35 -0.5 °F /  -18.1 °C -5.5 °F /  -20.8 °C 30.44in /  1030.7hPa Calm     79% 0.00in /  0mm
03:45 -0.8 °F /  -18.2 °C -5.7 °F /  -20.9 °C 30.45in /  1031hPa Calm     79% 0.00in /  0mm
03:50 -0.4 °F /  -18 °C -5.1 °F /  -20.6 °C 30.44in /  1030.7hPa Calm     80% 0.00in /  0mm
03:55 0.2 °F /  -17.7 °C -4.5 °F /  -20.3 °C 30.45in /  1031hPa Calm     80% 0.00in /  0mm
04:00 0.6 °F /  -17.4 °C -4.1 °F /  -20.1 °C 30.45in /  1031hPa Calm     80% 0.00in /  0mm
04:05 0.8 °F /  -17.3 °C -3.9 °F /  -19.9 °C 30.45in /  1031hPa Calm     80% 0.00in /  0mm
04:10 0.9 °F /  -17.3 °C -3.8 °F /  -19.9 °C 30.46in /  1031.4hPa Calm     80% 0.00in /  0mm
04:15 0.6 °F /  -17.4 °C -4.4 °F /  -20.2 °C 30.46in /  1031.4hPa Calm     79% 0.00in /  0mm
04:20 0.4 °F /  -17.6 °C -4.6 °F /  -20.3 °C 30.47in /  1031.7hPa Calm     79% 0.00in /  0mm
04:25 0.2 °F /  -17.7 °C -4.8 °F /  -20.4 °C 30.48in /  1032.1hPa Calm     79% 0.00in /  0mm
04:35 0.4 °F /  -17.6 °C -4.3 °F /  -20.2 °C 30.47in /  1031.7hPa Calm     80% 0.00in /  0mm
04:40 0.5 °F /  -17.5 °C -4.2 °F /  -20.1 °C 30.47in /  1031.7hPa Calm     80% 0.00in /  0mm
04:50 1.4 °F /  -17 °C -3.1 °F /  -19.5 °C 30.47in /  1031.7hPa Calm     81% 0.00in /  0mm
04:55 1.5 °F /  -16.9 °C -3.2 °F /  -19.6 °C 30.47in /  1031.7hPa Calm     80% 0.00in /  0mm
05:00 1.1 °F /  -17.2 °C -3.9 °F /  -19.9 °C 30.47in /  1031.7hPa Calm     79% 0.00in /  0mm
05:05 0.6 °F /  -17.4 °C -4.4 °F /  -20.2 °C 30.48in /  1032.1hPa Calm     79% 0.00in /  0mm
05:10 0.2 °F /  -17.7 °C -4.8 °F /  -20.4 °C 30.48in /  1032.1hPa Calm     79% 0.00in /  0mm
05:15 -0.2 °F /  -17.9 °C -5.2 °F /  -20.7 °C 30.48in /  1032.1hPa Calm     79% 0.00in /  0mm
05:20 -0.5 °F /  -18.1 °C -5.7 °F /  -20.9 °C 30.48in /  1032.1hPa Calm     78% 0.00in /  0mm
05:25 -0.7 °F /  -18.2 °C -5.9 °F /  -21.1 °C 30.48in /  1032.1hPa Calm     78% 0.00in /  0mm
05:30 -0.5 °F /  -18.1 °C -5.5 °F /  -20.8 °C 30.48in /  1032.1hPa Calm     79% 0.00in /  0mm
05:40 -0.7 °F /  -18.2 °C -5.6 °F /  -20.9 °C 30.48in /  1032.1hPa Calm     79% 0.00in /  0mm
05:45 -0.5 °F /  -18.1 °C -5.5 °F /  -20.8 °C 30.49in /  1032.4hPa Calm     79% 0.00in /  0mm
05:55 -0.4 °F /  -18 °C -5.4 °F /  -20.8 °C 30.49in /  1032.4hPa Calm     79% 0.00in /  0mm
06:00 -0.4 °F /  -18 °C -5.4 °F /  -20.8 °C 30.49in /  1032.4hPa Calm     79% 0.00in /  0mm
06:05 -0.2 °F /  -17.9 °C -5.2 °F /  -20.7 °C 30.49in /  1032.4hPa Calm     79% 0.00in /  0mm
06:10 0.0 °F /  -17.8 °C -4.7 °F /  -20.4 °C 30.49in /  1032.4hPa Calm     80% 0.00in /  0mm
06:15 0.3 °F /  -17.6 °C -4.4 °F /  -20.2 °C 30.49in /  1032.4hPa Calm     80% 0.00in /  0mm
06:20 0.5 °F /  -17.5 °C -4.2 °F /  -20.1 °C 30.49in /  1032.4hPa Calm     80% 0.00in /  0mm
06:25 0.7 °F /  -17.4 °C -4.0 °F /  -20 °C 30.49in /  1032.4hPa Calm     80% 0.00in /  0mm
06:30 0.9 °F /  -17.3 °C -3.8 °F /  -19.9 °C 30.49in /  1032.4hPa Calm     80% 0.00in /  0mm
06:35 1.0 °F /  -17.2 °C -3.7 °F /  -19.8 °C 30.49in /  1032.4hPa Calm     80% 0.00in /  0mm
06:40 1.0 °F /  -17.2 °C -3.7 °F /  -19.8 °C 30.49in /  1032.4hPa Calm     80% 0.00in /  0mm
06:50 0.4 °F /  -17.6 °C -4.6 °F /  -20.3 °C 30.49in /  1032.4hPa Calm     79% 0.00in /  0mm
06:55 0.4 °F /  -17.6 °C -4.3 °F /  -20.2 °C 30.49in /  1032.4hPa Calm     80% 0.00in /  0mm
07:00 0.4 °F /  -17.6 °C -4.3 °F /  -20.2 °C 30.50in /  1032.7hPa Calm     80% 0.00in /  0mm
07:05 0.3 °F /  -17.6 °C -4.7 °F /  -20.4 °C 30.50in /  1032.7hPa Calm     79% 0.00in /  0mm
07:10 0.3 °F /  -17.6 °C -4.4 °F /  -20.2 °C 30.50in /  1032.7hPa Calm     80% 0.00in /  0mm
07:15 0.3 °F /  -17.6 °C -4.4 °F /  -20.2 °C 30.50in /  1032.7hPa Calm     80% 0.00in /  0mm
07:20 0.2 °F /  -17.7 °C -4.8 °F /  -20.4 °C 30.51in /  1033.1hPa Calm     79% 0.00in /  0mm
07:25 0.1 °F /  -17.7 °C -4.9 °F /  -20.5 °C 30.50in /  1032.7hPa Calm     79% 0.00in /  0mm
07:30 0.1 °F /  -17.7 °C -4.9 °F /  -20.5 °C 30.50in /  1032.7hPa Calm     79% 0.00in /  0mm
07:35 0.0 °F /  -17.8 °C -5.0 °F /  -20.6 °C 30.50in /  1032.7hPa Calm     79% 0.00in /  0mm
07:40 -0.1 °F /  -17.8 °C -5.1 °F /  -20.6 °C 30.50in /  1032.7hPa Calm     79% 0.00in /  0mm
07:45 -0.2 °F /  -17.9 °C -5.2 °F /  -20.7 °C 30.51in /  1033.1hPa Calm     79% 0.00in /  0mm
07:55 -0.1 °F /  -17.8 °C -5.1 °F /  -20.6 °C 30.52in /  1033.4hPa Calm     79% 0.00in /  0mm
08:00 -0.1 °F /  -17.8 °C -5.1 °F /  -20.6 °C 30.52in /  1033.4hPa Calm     79% 0.00in /  0mm
08:05 0.2 °F /  -17.7 °C -4.5 °F /  -20.3 °C 30.52in /  1033.4hPa Calm     80% 0.00in /  0mm
08:10 0.6 °F /  -17.4 °C -4.1 °F /  -20.1 °C 30.52in /  1033.4hPa Calm     80% 0.00in /  0mm
08:15 0.8 °F /  -17.3 °C -3.9 °F /  -19.9 °C 30.52in /  1033.4hPa Calm     80% 0.00in /  0mm
08:20 1.0 °F /  -17.2 °C -3.7 °F /  -19.8 °C 30.52in /  1033.4hPa Calm     80% 0.00in /  0mm
08:25 1.1 °F /  -17.2 °C -3.6 °F /  -19.8 °C 30.52in /  1033.4hPa Calm     80% 0.00in /  0mm
08:30 1.3 °F /  -17.1 °C -3.4 °F /  -19.7 °C 30.53in /  1033.7hPa Calm     80% 0.00in /  0mm
08:35 1.5 °F /  -16.9 °C -3.2 °F /  -19.6 °C 30.52in /  1033.4hPa Calm     80% 0.00in /  0mm
08:40 1.7 °F /  -16.8 °C -3.0 °F /  -19.4 °C 30.53in /  1033.7hPa Calm     80% 0.00in /  0mm
08:45 2.0 °F /  -16.7 °C -2.7 °F /  -19.3 °C 30.52in /  1033.4hPa Calm     80% 0.00in /  0mm
08:50 2.3 °F /  -16.5 °C -2.5 °F /  -19.2 °C 30.53in /  1033.7hPa Calm     80% 0.00in /  0mm
08:55 2.6 °F /  -16.3 °C -2.2 °F /  -19 °C 30.53in /  1033.7hPa Calm     80% 0.00in /  0mm
09:00 3.0 °F /  -16.1 °C -1.8 °F /  -18.8 °C 30.53in /  1033.7hPa Calm     80% 0.00in /  0mm
09:05 3.4 °F /  -15.9 °C -1.4 °F /  -18.6 °C 30.53in /  1033.7hPa Calm     80% 0.00in /  0mm
09:10 3.8 °F /  -15.7 °C -1.0 °F /  -18.3 °C 30.53in /  1033.7hPa Calm     80% 0.00in /  0mm
09:15 4.6 °F /  -15.2 °C 0.1 °F /  -17.7 °C 30.53in /  1033.7hPa Calm     81% 0.00in /  0mm
09:20 5.9 °F /  -14.5 °C 1.6 °F /  -16.9 °C 30.53in /  1033.7hPa Calm     82% 0.00in /  0mm
09:25 7.1 °F /  -13.8 °C 2.8 °F /  -16.2 °C 30.53in /  1033.7hPa Calm     82% 0.00in /  0mm
09:35 8.7 °F /  -12.9 °C 4.1 °F /  -15.5 °C 30.54in /  1034.1hPa Calm     81% 0.00in /  0mm
09:40 9.5 °F /  -12.5 °C 4.8 °F /  -15.1 °C 30.54in /  1034.1hPa Calm     81% 0.00in /  0mm
09:50 10.4 °F /  -12 °C 5.5 °F /  -14.7 °C 30.54in /  1034.1hPa Calm     80% 0.00in /  0mm
09:55 10.6 °F /  -11.9 °C 5.7 °F /  -14.6 °C 30.54in /  1034.1hPa Calm     80% 0.00in /  0mm
10:00 11.2 °F /  -11.6 °C 6.5 °F /  -14.2 °C 30.54in /  1034.1hPa Calm     81% 0.00in /  0mm
10:05 11.8 °F /  -11.2 °C 6.8 °F /  -14 °C 30.54in /  1034.1hPa Calm     80% 0.00in /  0mm
10:10 12.4 °F /  -10.9 °C 7.4 °F /  -13.7 °C 30.54in /  1034.1hPa Calm     80% 0.00in /  0mm
10:15 13.1 °F /  -10.5 °C 8.1 °F /  -13.3 °C 30.54in /  1034.1hPa Calm     80% 0.00in /  0mm
10:20 13.7 °F /  -10.2 °C 8.7 °F /  -12.9 °C 30.53in /  1033.7hPa Calm     80% 0.00in /  0mm
10:25 14.1 °F /  -9.9 °C 8.8 °F /  -12.9 °C 30.53in /  1033.7hPa Calm     79% 0.00in /  0mm
10:30 14.2 °F /  -9.9 °C 8.6 °F /  -13 °C 30.53in /  1033.7hPa Calm     78% 0.00in /  0mm
10:35 14.5 °F /  -9.7 °C 8.9 °F /  -12.8 °C 30.53in /  1033.7hPa Calm     78% 0.00in /  0mm
10:40 15.3 °F /  -9.3 °C 10.0 °F /  -12.2 °C 30.54in /  1034.1hPa Calm     79% 0.00in /  0mm
10:45 15.4 °F /  -9.2 °C 9.5 °F /  -12.5 °C 30.53in /  1033.7hPa Calm     77% 0.00in /  0mm
10:50 15.7 °F /  -9.1 °C 9.5 °F /  -12.5 °C 30.53in /  1033.7hPa Calm     76% 0.00in /  0mm
10:55 16.7 °F /  -8.5 °C 10.2 °F /  -12.1 °C 30.53in /  1033.7hPa Calm     75% 0.00in /  0mm
11:00 17.4 °F /  -8.1 °C 10.2 °F /  -12.1 °C 30.53in /  1033.7hPa Calm   2.0mph /  3.2km/h 73% 0.00in /  0mm
11:05 17.5 °F /  -8.1 °C 9.1 °F /  -12.7 °C 30.53in /  1033.7hPa SW 2.0mph /  3.2km/h 7.0mph /  11.3km/h 69% 0.00in /  0mm
11:10 17.2 °F /  -8.2 °C 6.8 °F /  -14 °C 30.52in /  1033.4hPa SW 3.0mph /  4.8km/h 7.0mph /  11.3km/h 63% 0.00in /  0mm
11:15 17.4 °F /  -8.1 °C 6.6 °F /  -14.1 °C 30.52in /  1033.4hPa SSW 1.0mph /  1.6km/h 6.0mph /  9.7km/h 62% 0.00in /  0mm
11:20 18.3 °F /  -7.6 °C 7.1 °F /  -13.8 °C 30.52in /  1033.4hPa SSW 2.0mph /  3.2km/h 6.0mph /  9.7km/h 61% 0.00in /  0mm
11:25 18.6 °F /  -7.4 °C 6.6 °F /  -14.1 °C 30.52in /  1033.4hPa SSW 1.0mph /  1.6km/h 6.0mph /  9.7km/h 59% 0.00in /  0mm
11:30 18.8 °F /  -7.3 °C 6.5 °F /  -14.2 °C 30.52in /  1033.4hPa SSW 1.0mph /  1.6km/h 6.0mph /  9.7km/h 58% 0.00in /  0mm
11:35 19.1 °F /  -7.2 °C 7.1 °F /  -13.8 °C 30.52in /  1033.4hPa Calm   5.0mph /  8km/h 59% 0.00in /  0mm
11:45 19.8 °F /  -6.8 °C 7.0 °F /  -13.9 °C 30.52in /  1033.4hPa SSW 1.0mph /  1.6km/h 4.0mph /  6.4km/h 57% 0.00in /  0mm
11:50 20.1 °F /  -6.6 °C 5.7 °F /  -14.6 °C 30.52in /  1033.4hPa SSW 3.0mph /  4.8km/h 5.0mph /  8km/h 53% 0.00in /  0mm
11:55 19.9 °F /  -6.7 °C 5.1 °F /  -14.9 °C 30.52in /  1033.4hPa SSW 3.0mph /  4.8km/h 6.0mph /  9.7km/h 52% 0.00in /  0mm
12:00 20.4 °F /  -6.4 °C 6.4 °F /  -14.2 °C 30.52in /  1033.4hPa SSW 1.0mph /  1.6km/h 6.0mph /  9.7km/h 54% 0.00in /  0mm
12:05 21.1 °F /  -6.1 °C 6.2 °F /  -14.3 °C 30.52in /  1033.4hPa SSW 3.0mph /  4.8km/h 6.0mph /  9.7km/h 52% 0.00in /  0mm
12:10 21.3 °F /  -5.9 °C 6.4 °F /  -14.2 °C 30.52in /  1033.4hPa SSW 3.0mph /  4.8km/h 6.0mph /  9.7km/h 52% 0.00in /  0mm
12:15 21.1 °F /  -6.1 °C 5.8 °F /  -14.6 °C 30.51in /  1033.1hPa SSW 3.0mph /  4.8km/h 7.0mph /  11.3km/h 51% 0.00in /  0mm
12:20 21.1 °F /  -6.1 °C 5.4 °F /  -14.8 °C 30.51in /  1033.1hPa SSW 3.0mph /  4.8km/h 7.0mph /  11.3km/h 50% 0.00in /  0mm
12:25 21.2 °F /  -6 °C 5.0 °F /  -15 °C 30.50in /  1032.7hPa SSW 2.0mph /  3.2km/h 9.0mph /  14.5km/h 49% 0.00in /  0mm
12:30 21.3 °F /  -5.9 °C 5.5 °F /  -14.7 °C 30.50in /  1032.7hPa SSW 3.0mph /  4.8km/h 9.0mph /  14.5km/h 50% 0.00in /  0mm
12:35 21.6 °F /  -5.8 °C 5.8 °F /  -14.6 °C 30.50in /  1032.7hPa SSW 1.0mph /  1.6km/h 9.0mph /  14.5km/h 50% 0.00in /  0mm
12:40 22.0 °F /  -5.6 °C 5.7 °F /  -14.6 °C 30.50in /  1032.7hPa SSW 1.0mph /  1.6km/h 6.0mph /  9.7km/h 49% 0.00in /  0mm
12:50 22.5 °F /  -5.3 °C 6.2 °F /  -14.3 °C 30.49in /  1032.4hPa Calm   4.0mph /  6.4km/h 49% 0.00in /  0mm
12:55 22.6 °F /  -5.2 °C 6.3 °F /  -14.3 °C 30.50in /  1032.7hPa WSW 1.0mph /  1.6km/h 4.0mph /  6.4km/h 49% 0.00in /  0mm
13:00 22.5 °F /  -5.3 °C 5.8 °F /  -14.6 °C 30.49in /  1032.4hPa WSW 1.0mph /  1.6km/h 4.0mph /  6.4km/h 48% 0.00in /  0mm
13:05 22.3 °F /  -5.4 °C 5.1 °F /  -14.9 °C 30.49in /  1032.4hPa SW 4.0mph /  6.4km/h 7.0mph /  11.3km/h 47% 0.00in /  0mm
13:10 22.2 °F /  -5.4 °C 5.5 °F /  -14.7 °C 30.49in /  1032.4hPa South 4.0mph /  6.4km/h 7.0mph /  11.3km/h 48% 0.00in /  0mm
13:15 22.4 °F /  -5.3 °C 5.2 °F /  -14.9 °C 30.49in /  1032.4hPa SSW 1.0mph /  1.6km/h 7.0mph /  11.3km/h 47% 0.00in /  0mm
13:20 22.7 °F /  -5.2 °C 5.9 °F /  -14.5 °C 30.49in /  1032.4hPa SSW 2.0mph /  3.2km/h 6.0mph /  9.7km/h 48% 0.00in /  0mm
13:30 23.2 °F /  -4.9 °C 6.4 °F /  -14.2 °C 30.49in /  1032.4hPa SSW 2.0mph /  3.2km/h 4.0mph /  6.4km/h 48% 0.00in /  0mm
13:35 23.1 °F /  -4.9 °C 7.2 °F /  -13.8 °C 30.48in /  1032.1hPa Calm   4.0mph /  6.4km/h 50% 0.00in /  0mm
13:40 22.9 °F /  -5.1 °C 6.6 °F /  -14.1 °C 30.48in /  1032.1hPa ESE 1.0mph /  1.6km/h 4.0mph /  6.4km/h 49% 0.00in /  0mm
13:50 23.0 °F /  -5 °C 7.1 °F /  -13.8 °C 30.47in /  1031.7hPa East 2.0mph /  3.2km/h 3.0mph /  4.8km/h 50% 0.00in /  0mm
13:55 22.7 °F /  -5.2 °C 7.3 °F /  -13.7 °C 30.47in /  1031.7hPa ENE 2.0mph /  3.2km/h 5.0mph /  8km/h 51% 0.00in /  0mm
14:00 22.6 °F /  -5.2 °C 7.6 °F /  -13.6 °C 30.46in /  1031.4hPa East 1.0mph /  1.6km/h 5.0mph /  8km/h 52% 0.00in /  0mm
14:05 22.6 °F /  -5.2 °C 7.2 °F /  -13.8 °C 30.46in /  1031.4hPa SE 2.0mph /  3.2km/h 5.0mph /  8km/h 51% 0.00in /  0mm
14:10 22.6 °F /  -5.2 °C 7.2 °F /  -13.8 °C 30.46in /  1031.4hPa East 1.0mph /  1.6km/h 5.0mph /  8km/h 51% 0.00in /  0mm
14:20 23.0 °F /  -5 °C 7.1 °F /  -13.8 °C 30.45in /  1031hPa Calm   4.0mph /  6.4km/h 50% 0.00in /  0mm
14:25 23.1 °F /  -4.9 °C 7.2 °F /  -13.8 °C 30.45in /  1031hPa Calm   2.0mph /  3.2km/h 50% 0.00in /  0mm
14:30 23.3 °F /  -4.8 °C 7.4 °F /  -13.7 °C 30.45in /  1031hPa ESE 1.0mph /  1.6km/h 3.0mph /  4.8km/h 50% 0.00in /  0mm
14:35 23.6 °F /  -4.7 °C 7.7 °F /  -13.5 °C 30.45in /  1031hPa Calm   3.0mph /  4.8km/h 50% 0.00in /  0mm
14:40 24.1 °F /  -4.4 °C 7.7 °F /  -13.5 °C 30.45in /  1031hPa South 1.0mph /  1.6km/h 3.0mph /  4.8km/h 49% 0.00in /  0mm
14:50 24.6 °F /  -4.1 °C 7.7 °F /  -13.5 °C 30.45in /  1031hPa South 2.0mph /  3.2km/h 5.0mph /  8km/h 48% 0.00in /  0mm
14:55 24.8 °F /  -4 °C 7.4 °F /  -13.7 °C 30.45in /  1031hPa South 2.0mph /  3.2km/h 5.0mph /  8km/h 47% 0.00in /  0mm
15:00 24.6 °F /  -4.1 °C 7.7 °F /  -13.5 °C 30.45in /  1031hPa SSW 1.0mph /  1.6km/h 5.0mph /  8km/h 48% 0.00in /  0mm
15:05 24.4 °F /  -4.2 °C 7.5 °F /  -13.6 °C 30.44in /  1030.7hPa South 2.0mph /  3.2km/h 5.0mph /  8km/h 48% 0.00in /  0mm
15:10 24.7 °F /  -4.1 °C 8.2 °F /  -13.2 °C 30.44in /  1030.7hPa Calm   5.0mph /  8km/h 49% 0.00in /  0mm
15:15 25.1 °F /  -3.8 °C 8.2 °F /  -13.2 °C 30.43in /  1030.4hPa South 2.0mph /  3.2km/h 3.0mph /  4.8km/h 48% 0.00in /  0mm
15:20 25.2 °F /  -3.8 °C 8.2 °F /  -13.2 °C 30.43in /  1030.4hPa South 1.0mph /  1.6km/h 4.0mph /  6.4km/h 48% 0.00in /  0mm
15:25 25.1 °F /  -3.8 °C 8.2 °F /  -13.2 °C 30.43in /  1030.4hPa South 2.0mph /  3.2km/h 4.0mph /  6.4km/h 48% 0.00in /  0mm
15:30 24.5 °F /  -4.2 °C 7.6 °F /  -13.6 °C 30.42in /  1030hPa SSW 2.0mph /  3.2km/h 7.0mph /  11.3km/h 48% 0.00in /  0mm
15:40 24.1 °F /  -4.4 °C 7.7 °F /  -13.5 °C 30.43in /  1030.4hPa South 2.0mph /  3.2km/h 4.0mph /  6.4km/h 49% 0.00in /  0mm
15:45 23.7 °F /  -4.6 °C 7.8 °F /  -13.4 °C 30.43in /  1030.4hPa SW 1.0mph /  1.6km/h 6.0mph /  9.7km/h 50% 0.00in /  0mm
15:50 23.7 °F /  -4.6 °C 7.8 °F /  -13.4 °C 30.42in /  1030hPa SW 2.0mph /  3.2km/h 6.0mph /  9.7km/h 50% 0.00in /  0mm
15:55 23.6 °F /  -4.7 °C 7.7 °F /  -13.5 °C 30.42in /  1030hPa SSW 3.0mph /  4.8km/h 5.0mph /  8km/h 50% 0.00in /  0mm
16:00 23.7 °F /  -4.6 °C 8.2 °F /  -13.2 °C 30.42in /  1030hPa SSW 3.0mph /  4.8km/h 5.0mph /  8km/h 51% 0.00in /  0mm
16:05 23.8 °F /  -4.6 °C 8.3 °F /  -13.2 °C 30.42in /  1030hPa SSW 3.0mph /  4.8km/h 6.0mph /  9.7km/h 51% 0.00in /  0mm
16:10 23.6 °F /  -4.7 °C 8.1 °F /  -13.3 °C 30.42in /  1030hPa SSW 1.0mph /  1.6km/h 6.0mph /  9.7km/h 51% 0.00in /  0mm
16:15 23.5 °F /  -4.7 °C 8.0 °F /  -13.3 °C 30.42in /  1030hPa SSW 2.0mph /  3.2km/h 5.0mph /  8km/h 51% 0.00in /  0mm
16:20 23.3 °F /  -4.8 °C 8.3 °F /  -13.2 °C 30.43in /  1030.4hPa SSW 2.0mph /  3.2km/h 7.0mph /  11.3km/h 52% 0.00in /  0mm
16:25 23.0 °F /  -5 °C 8.4 °F /  -13.1 °C 30.43in /  1030.4hPa SW 3.0mph /  4.8km/h 8.0mph /  12.9km/h 53% 0.00in /  0mm
16:30 22.8 °F /  -5.1 °C 8.2 °F /  -13.2 °C 30.42in /  1030hPa SSW 3.0mph /  4.8km/h 8.0mph /  12.9km/h 53% 0.00in /  0mm
16:40 22.4 °F /  -5.3 °C 7.8 °F /  -13.4 °C 30.42in /  1030hPa SSW 2.0mph /  3.2km/h 7.0mph /  11.3km/h 53% 0.00in /  0mm
16:50 22.2 °F /  -5.4 °C 7.7 °F /  -13.5 °C 30.42in /  1030hPa South 3.0mph /  4.8km/h 7.0mph /  11.3km/h 53% 0.00in /  0mm
16:55 22.1 °F /  -5.5 °C 8.0 °F /  -13.3 °C 30.42in /  1030hPa SSW 5.0mph /  8km/h 8.0mph /  12.9km/h 54% 0.00in /  0mm
17:00 21.9 °F /  -5.6 °C 7.8 °F /  -13.4 °C 30.42in /  1030hPa SSW 4.0mph /  6.4km/h 9.0mph /  14.5km/h 54% 0.00in /  0mm
17:05 21.7 °F /  -5.7 °C 8.0 °F /  -13.3 °C 30.42in /  1030hPa SSW 4.0mph /  6.4km/h 9.0mph /  14.5km/h 55% 0.00in /  0mm
17:10 21.5 °F /  -5.8 °C 7.8 °F /  -13.4 °C 30.42in /  1030hPa SSW 4.0mph /  6.4km/h 9.0mph /  14.5km/h 55% 0.00in /  0mm
17:15 21.4 °F /  -5.9 °C 7.7 °F /  -13.5 °C 30.41in /  1029.7hPa SSW 3.0mph /  4.8km/h 8.0mph /  12.9km/h 55% 0.00in /  0mm
17:20 21.4 °F /  -5.9 °C 8.1 °F /  -13.3 °C 30.41in /  1029.7hPa SSW 6.0mph /  9.7km/h 10.0mph /  16.1km/h 56% 0.00in /  0mm
17:30 21.3 °F /  -5.9 °C 8.0 °F /  -13.3 °C 30.41in /  1029.7hPa SSW 4.0mph /  6.4km/h 12.0mph /  19.3km/h 56% 0.00in /  0mm
17:35 21.2 °F /  -6 °C 7.9 °F /  -13.4 °C 30.40in /  1029.3hPa SSW 4.0mph /  6.4km/h 12.0mph /  19.3km/h 56% 0.00in /  0mm
17:40 21.0 °F /  -6.1 °C 8.1 °F /  -13.3 °C 30.41in /  1029.7hPa SSW 5.0mph /  8km/h 11.0mph /  17.7km/h 57% 0.00in /  0mm
17:45 21.0 °F /  -6.1 °C 8.1 °F /  -13.3 °C 30.41in /  1029.7hPa SSW 5.0mph /  8km/h 11.0mph /  17.7km/h 57% 0.00in /  0mm
17:50 20.8 °F /  -6.2 °C 8.3 °F /  -13.2 °C 30.41in /  1029.7hPa SSW 5.0mph /  8km/h 10.0mph /  16.1km/h 58% 0.00in /  0mm
17:55 20.7 °F /  -6.3 °C 8.2 °F /  -13.2 °C 30.41in /  1029.7hPa SSW 6.0mph /  9.7km/h 10.0mph /  16.1km/h 58% 0.00in /  0mm
18:00 20.6 °F /  -6.3 °C 8.5 °F /  -13.1 °C 30.40in /  1029.3hPa SSW 3.0mph /  4.8km/h 9.0mph /  14.5km/h 59% 0.00in /  0mm
18:05 20.6 °F /  -6.3 °C 8.5 °F /  -13.1 °C 30.41in /  1029.7hPa SSW 4.0mph /  6.4km/h 9.0mph /  14.5km/h 59% 0.00in /  0mm
18:10 20.6 °F /  -6.3 °C 8.5 °F /  -13.1 °C 30.41in /  1029.7hPa SSW 5.0mph /  8km/h 9.0mph /  14.5km/h 59% 0.00in /  0mm
18:15 20.7 °F /  -6.3 °C 8.6 °F /  -13 °C 30.41in /  1029.7hPa SSW 6.0mph /  9.7km/h 11.0mph /  17.7km/h 59% 0.00in /  0mm
18:20 20.8 °F /  -6.2 °C 8.3 °F /  -13.2 °C 30.41in /  1029.7hPa SW 6.0mph /  9.7km/h 14.0mph /  22.5km/h 58% 0.00in /  0mm
18:30 20.7 °F /  -6.3 °C 8.2 °F /  -13.2 °C 30.41in /  1029.7hPa SSW 6.0mph /  9.7km/h 13.0mph /  20.9km/h 58% 0.00in /  0mm
18:40 20.7 °F /  -6.3 °C 8.2 °F /  -13.2 °C 30.40in /  1029.3hPa South 7.0mph /  11.3km/h 12.0mph /  19.3km/h 58% 0.00in /  0mm
18:45 20.7 °F /  -6.3 °C 8.2 °F /  -13.2 °C 30.40in /  1029.3hPa SSW 8.0mph /  12.9km/h 12.0mph /  19.3km/h 58% 0.00in /  0mm
18:50 20.7 °F /  -6.3 °C 8.2 °F /  -13.2 °C 30.40in /  1029.3hPa South 7.0mph /  11.3km/h 15.0mph /  24.1km/h 58% 0.00in /  0mm
18:55 20.8 °F /  -6.2 °C 8.3 °F /  -13.2 °C 30.40in /  1029.3hPa South 8.0mph /  12.9km/h 15.0mph /  24.1km/h 58% 0.00in /  0mm
19:00 20.8 °F /  -6.2 °C 8.3 °F /  -13.2 °C 30.40in /  1029.3hPa South 3.0mph /  4.8km/h 14.0mph /  22.5km/h 58% 0.00in /  0mm
19:05 20.7 °F /  -6.3 °C 8.2 °F /  -13.2 °C 30.40in /  1029.3hPa South 5.0mph /  8km/h 13.0mph /  20.9km/h 58% 0.00in /  0mm
19:10 20.6 °F /  -6.3 °C 8.2 °F /  -13.2 °C 30.40in /  1029.3hPa South 5.0mph /  8km/h 12.0mph /  19.3km/h 58% 0.00in /  0mm
19:15 20.7 °F /  -6.3 °C 8.2 °F /  -13.2 °C 30.40in /  1029.3hPa SSW 7.0mph /  11.3km/h 12.0mph /  19.3km/h 58% 0.00in /  0mm
19:20 20.6 °F /  -6.3 °C 8.2 °F /  -13.2 °C 30.40in /  1029.3hPa SSW 5.0mph /  8km/h 11.0mph /  17.7km/h 58% 0.00in /  0mm
19:25 20.5 °F /  -6.4 °C 8.1 °F /  -13.3 °C 30.40in /  1029.3hPa South 7.0mph /  11.3km/h 14.0mph /  22.5km/h 58% 0.00in /  0mm
19:30 20.6 °F /  -6.3 °C 8.2 °F /  -13.2 °C 30.40in /  1029.3hPa SSW 6.0mph /  9.7km/h 14.0mph /  22.5km/h 58% 0.00in /  0mm
19:35 20.7 °F /  -6.3 °C 7.9 °F /  -13.4 °C 30.40in /  1029.3hPa SSW 6.0mph /  9.7km/h 16.0mph /  25.7km/h 57% 0.00in /  0mm
19:40 20.8 °F /  -6.2 °C 8.0 °F /  -13.3 °C 30.39in /  1029hPa SSW 7.0mph /  11.3km/h 16.0mph /  25.7km/h 57% 0.00in /  0mm
19:45 20.9 °F /  -6.2 °C 8.1 °F /  -13.3 °C 30.39in /  1029hPa SSW 6.0mph /  9.7km/h 15.0mph /  24.1km/h 57% 0.00in /  0mm
19:55 20.9 °F /  -6.2 °C 8.1 °F /  -13.3 °C 30.40in /  1029.3hPa SSW 6.0mph /  9.7km/h 16.0mph /  25.7km/h 57% 0.00in /  0mm
20:00 21.0 °F /  -6.1 °C 8.1 °F /  -13.3 °C 30.39in /  1029hPa SSW 6.0mph /  9.7km/h 14.0mph /  22.5km/h 57% 0.00in /  0mm
20:05 21.2 °F /  -6 °C 7.9 °F /  -13.4 °C 30.39in /  1029hPa SSW 5.0mph /  8km/h 13.0mph /  20.9km/h 56% 0.00in /  0mm
20:10 21.2 °F /  -6 °C 7.9 °F /  -13.4 °C 30.38in /  1028.7hPa SSW 5.0mph /  8km/h 13.0mph /  20.9km/h 56% 0.00in /  0mm
20:15 21.4 °F /  -5.9 °C 8.1 °F /  -13.3 °C 30.39in /  1029hPa SSW 7.0mph /  11.3km/h 16.0mph /  25.7km/h 56% 0.00in /  0mm
20:20 21.6 °F /  -5.8 °C 7.9 °F /  -13.4 °C 30.39in /  1029hPa SSW 6.0mph /  9.7km/h 16.0mph /  25.7km/h 55% 0.00in /  0mm
20:25 21.8 °F /  -5.7 °C 8.1 °F /  -13.3 °C 30.39in /  1029hPa SSW 6.0mph /  9.7km/h 16.0mph /  25.7km/h 55% 0.00in /  0mm
20:30 22.0 °F /  -5.6 °C 7.9 °F /  -13.4 °C 30.39in /  1029hPa SSW 5.0mph /  8km/h 16.0mph /  25.7km/h 54% 0.00in /  0mm
20:35 22.1 °F /  -5.5 °C 7.6 °F /  -13.6 °C 30.39in /  1029hPa SSW 5.0mph /  8km/h 16.0mph /  25.7km/h 53% 0.00in /  0mm
20:40 22.1 °F /  -5.5 °C 7.6 °F /  -13.6 °C 30.39in /  1029hPa SSW 6.0mph /  9.7km/h 16.0mph /  25.7km/h 53% 0.00in /  0mm
20:45 21.9 °F /  -5.6 °C 7.4 °F /  -13.7 °C 30.39in /  1029hPa SSW 4.0mph /  6.4km/h 12.0mph /  19.3km/h 53% 0.00in /  0mm
20:50 21.6 °F /  -5.8 °C 7.5 °F /  -13.6 °C 30.38in /  1028.7hPa SSW 6.0mph /  9.7km/h 14.0mph /  22.5km/h 54% 0.00in /  0mm
20:55 21.5 °F /  -5.8 °C 7.4 °F /  -13.7 °C 30.38in /  1028.7hPa SSW 6.0mph /  9.7km/h 14.0mph /  22.5km/h 54% 0.00in /  0mm
21:00 21.5 °F /  -5.8 °C 7.8 °F /  -13.4 °C 30.37in /  1028.3hPa SSW 8.0mph /  12.9km/h 18.0mph /  29km/h 55% 0.00in /  0mm
21:05 21.6 °F /  -5.8 °C 8.3 °F /  -13.2 °C 30.37in /  1028.3hPa SSW 6.0mph /  9.7km/h 18.0mph /  29km/h 56% 0.00in /  0mm
21:10 21.8 °F /  -5.7 °C 8.5 °F /  -13.1 °C 30.37in /  1028.3hPa SSW 7.0mph /  11.3km/h 15.0mph /  24.1km/h 56% 0.00in /  0mm
21:15 22.4 °F /  -5.3 °C 9.1 °F /  -12.7 °C 30.36in /  1028hPa SSW 9.0mph /  14.5km/h 19.0mph /  30.6km/h 56% 0.00in /  0mm
21:20 23.0 °F /  -5 °C 9.6 °F /  -12.4 °C 30.36in /  1028hPa SSW 11.0mph /  17.7km/h 23.0mph /  37km/h 56% 0.00in /  0mm
21:25 23.6 °F /  -4.7 °C 10.6 °F /  -11.9 °C 30.37in /  1028.3hPa SSW 9.0mph /  14.5km/h 23.0mph /  37km/h 57% 0.00in /  0mm
21:30 24.0 °F /  -4.4 °C 11.0 °F /  -11.7 °C 30.36in /  1028hPa SSW 13.0mph /  20.9km/h 29.0mph /  46.7km/h 57% 0.00in /  0mm
21:35 24.2 °F /  -4.3 °C 11.2 °F /  -11.6 °C 30.36in /  1028hPa SSW 12.0mph /  19.3km/h 29.0mph /  46.7km/h 57% 0.00in /  0mm
21:40 24.3 °F /  -4.3 °C 12.0 °F /  -11.1 °C 30.36in /  1028hPa SSW 10.0mph /  16.1km/h 24.0mph /  38.6km/h 59% 0.00in /  0mm
21:45 24.3 °F /  -4.3 °C 12.4 °F /  -10.9 °C 30.35in /  1027.7hPa SSW 9.0mph /  14.5km/h 22.0mph /  35.4km/h 60% 0.00in /  0mm
21:50 24.5 °F /  -4.2 °C 13.3 °F /  -10.4 °C 30.35in /  1027.7hPa SSW 12.0mph /  19.3km/h 25.0mph /  40.2km/h 62% 0.00in /  0mm
21:55 24.6 °F /  -4.1 °C 13.8 °F /  -10.1 °C 30.35in /  1027.7hPa SSW 10.0mph /  16.1km/h 25.0mph /  40.2km/h 63% 0.00in /  0mm
22:00 24.7 °F /  -4.1 °C 13.9 °F /  -10.1 °C 30.35in /  1027.7hPa SSW 9.0mph /  14.5km/h 21.0mph /  33.8km/h 63% 0.00in /  0mm
22:05 24.6 °F /  -4.1 °C 13.8 °F /  -10.1 °C 30.35in /  1027.7hPa SSW 9.0mph /  14.5km/h 20.0mph /  32.2km/h 63% 0.00in /  0mm
22:10 24.6 °F /  -4.1 °C 13.8 °F /  -10.1 °C 30.35in /  1027.7hPa South 6.0mph /  9.7km/h 19.0mph /  30.6km/h 63% 0.00in /  0mm
22:15 24.6 °F /  -4.1 °C 14.2 °F /  -9.9 °C 30.34in /  1027.3hPa SSW 10.0mph /  16.1km/h 20.0mph /  32.2km/h 64% 0.00in /  0mm
22:20 24.7 °F /  -4.1 °C 14.6 °F /  -9.7 °C 30.35in /  1027.7hPa South 9.0mph /  14.5km/h 20.0mph /  32.2km/h 65% 0.00in /  0mm
22:30 24.9 °F /  -3.9 °C 14.8 °F /  -9.6 °C 30.35in /  1027.7hPa SSW 8.0mph /  12.9km/h 18.0mph /  29km/h 65% 0.00in /  0mm
22:35 24.9 °F /  -3.9 °C 15.2 °F /  -9.3 °C 30.35in /  1027.7hPa SSW 6.0mph /  9.7km/h 18.0mph /  29km/h 66% 0.00in /  0mm
22:40 25.0 °F /  -3.9 °C 15.2 °F /  -9.3 °C 30.34in /  1027.3hPa South 6.0mph /  9.7km/h 15.0mph /  24.1km/h 66% 0.00in /  0mm
22:45 25.2 °F /  -3.8 °C 15.4 °F /  -9.2 °C 30.34in /  1027.3hPa South 8.0mph /  12.9km/h 16.0mph /  25.7km/h 66% 0.00in /  0mm
22:50 25.2 °F /  -3.8 °C 15.8 °F /  -9 °C 30.34in /  1027.3hPa SSW 8.0mph /  12.9km/h 18.0mph /  29km/h 67% 0.00in /  0mm
22:55 25.2 °F /  -3.8 °C 15.8 °F /  -9 °C 30.33in /  1027hPa South 6.0mph /  9.7km/h 18.0mph /  29km/h 67% 0.00in /  0mm
23:00 25.2 °F /  -3.8 °C 16.1 °F /  -8.8 °C 30.33in /  1027hPa SSW 7.0mph /  11.3km/h 16.0mph /  25.7km/h 68% 0.00in /  0mm
23:05 25.2 °F /  -3.8 °C 16.1 °F /  -8.8 °C 30.33in /  1027hPa SSW 5.0mph /  8km/h 16.0mph /  25.7km/h 68% 0.00in /  0mm
23:10 25.3 °F /  -3.7 °C 16.6 °F /  -8.6 °C 30.33in /  1027hPa SSW 7.0mph /  11.3km/h 15.0mph /  24.1km/h 69% 0.00in /  0mm
23:15 25.4 °F /  -3.7 °C 16.7 °F /  -8.5 °C 30.33in /  1027hPa SSW 5.0mph /  8km/h 15.0mph /  24.1km/h 69% 0.00in /  0mm
23:20 25.6 °F /  -3.6 °C 16.8 °F /  -8.4 °C 30.33in /  1027hPa SSW 8.0mph /  12.9km/h 14.0mph /  22.5km/h 69% 0.00in /  0mm
23:25 25.9 °F /  -3.4 °C 17.1 °F /  -8.3 °C 30.32in /  1026.6hPa SSW 6.0mph /  9.7km/h 15.0mph /  24.1km/h 69% 0.00in /  0mm
23:30 26.0 °F /  -3.3 °C 17.6 °F /  -8 °C 30.32in /  1026.6hPa SSW 7.0mph /  11.3km/h 15.0mph /  24.1km/h 70% 0.00in /  0mm
23:35 26.1 °F /  -3.3 °C 17.7 °F /  -7.9 °C 30.32in /  1026.6hPa SSW 7.0mph /  11.3km/h 16.0mph /  25.7km/h 70% 0.00in /  0mm
23:45 26.2 °F /  -3.2 °C 17.8 °F /  -7.9 °C 30.32in /  1026.6hPa SSW 7.0mph /  11.3km/h 15.0mph /  24.1km/h 70% 0.00in /  0mm
23:50 26.2 °F /  -3.2 °C 17.8 °F /  -7.9 °C 30.32in /  1026.6hPa SSW 6.0mph /  9.7km/h 13.0mph /  20.9km/h 70% 0.00in /  0mm
23:55 26.2 °F /  -3.2 °C 17.8 °F /  -7.9 °C 30.32in /  1026.6hPa SSW 7.0mph /  11.3km/h 13.0mph /  20.9km/h 70% 0.00in /  0mm
Westford Weather
Compliments of Weather Underground

 
 
Current Radar Loop:

Copyright © WestfordWeather.net 2007-2014. All rights reserved.